createdAt,value
2017-12-02T00:00:12.817Z,92.70
2017-12-02T00:02:41.049Z,92.30
2017-12-02T00:05:08.526Z,92.30
2017-12-02T00:07:35.980Z,92.40
2017-12-02T00:10:03.425Z,92.20
2017-12-02T00:12:30.881Z,92.00
2017-12-02T00:14:58.319Z,92.20
2017-12-02T00:17:25.767Z,92.00
2017-12-02T00:19:53.213Z,92.20
2017-12-02T00:22:21.449Z,92.10
2017-12-02T00:24:48.903Z,92.00
2017-12-02T00:27:16.378Z,92.20
2017-12-02T00:29:43.845Z,92.40
2017-12-02T00:32:12.069Z,92.80
2017-12-02T00:34:39.534Z,92.70
2017-12-02T00:37:07.018Z,92.80
2017-12-02T00:39:34.442Z,92.80
2017-12-02T00:42:01.911Z,92.70
2017-12-02T00:44:29.351Z,93.00
2017-12-02T00:46:56.860Z,93.20
2017-12-02T00:49:24.324Z,93.30
2017-12-02T00:51:51.800Z,93.10
2017-12-02T00:54:20.012Z,93.00
2017-12-02T00:56:47.515Z,93.00
2017-12-02T00:59:15.017Z,92.90
2017-12-02T01:01:42.542Z,92.70
2017-12-02T01:04:10.741Z,93.10
2017-12-02T01:06:38.225Z,93.00
2017-12-02T01:09:05.661Z,92.50
2017-12-02T01:11:33.114Z,92.90
2017-12-02T01:14:00.585Z,92.60
2017-12-02T01:16:28.021Z,92.90
2017-12-02T01:18:55.478Z,93.10
2017-12-02T01:21:23.715Z,92.90
2017-12-02T01:23:51.200Z,92.90
2017-12-02T01:26:18.651Z,92.90
2017-12-02T01:28:46.858Z,92.80
2017-12-02T01:31:14.366Z,92.80
2017-12-02T01:33:41.820Z,92.90
2017-12-02T01:36:09.281Z,92.80
2017-12-02T01:38:36.772Z,92.80
2017-12-02T01:41:04.975Z,92.40
2017-12-02T01:43:32.497Z,92.40
2017-12-02T01:46:00.706Z,92.80
2017-12-02T01:48:28.165Z,92.70
2017-12-02T01:50:55.618Z,92.50
2017-12-02T01:53:23.060Z,92.60
2017-12-02T01:55:51.268Z,92.40
2017-12-02T01:58:18.696Z,92.40
2017-12-02T02:00:46.950Z,92.60
2017-12-02T02:03:14.377Z,92.70
2017-12-02T02:05:41.805Z,92.60
2017-12-02T02:08:09.251Z,92.60
2017-12-02T02:10:36.707Z,92.50
2017-12-02T02:13:04.185Z,92.30
2017-12-02T02:15:31.684Z,92.30
2017-12-02T02:17:59.081Z,92.40
2017-12-02T02:20:26.546Z,92.50
2017-12-02T02:22:54.004Z,92.10
2017-12-02T02:25:21.464Z,92.30
2017-12-02T02:27:48.897Z,92.30
2017-12-02T02:30:17.118Z,92.40
2017-12-02T02:32:44.606Z,92.40
2017-12-02T02:35:12.058Z,92.50
2017-12-02T02:37:39.494Z,92.60
2017-12-02T02:40:06.956Z,92.50
2017-12-02T02:42:34.401Z,92.40
2017-12-02T02:45:01.818Z,92.50
2017-12-02T02:47:29.281Z,92.50
2017-12-02T02:49:57.505Z,92.70
2017-12-02T02:52:24.979Z,92.20
2017-12-02T02:54:53.466Z,92.30
2017-12-02T02:57:21.057Z,92.40
2017-12-02T02:59:48.512Z,92.60
2017-12-02T03:02:16.725Z,93.30
2017-12-02T03:04:44.204Z,92.90
2017-12-02T03:07:11.661Z,92.90
2017-12-02T03:09:39.140Z,92.60
2017-12-02T03:12:06.608Z,92.40
2017-12-02T03:14:35.531Z,92.40
2017-12-02T03:17:02.981Z,92.40
2017-12-02T03:19:30.450Z,93.00
2017-12-02T03:21:57.889Z,93.00
2017-12-02T03:24:26.033Z,93.10
2017-12-02T03:26:53.484Z,92.90
2017-12-02T03:29:20.946Z,92.70
2017-12-02T03:31:48.369Z,92.60
2017-12-02T03:34:15.825Z,92.80
2017-12-02T03:36:43.277Z,93.10
2017-12-02T03:39:10.712Z,92.90
2017-12-02T03:41:38.174Z,92.80
2017-12-02T03:44:05.631Z,92.90
2017-12-02T03:46:33.088Z,92.70
2017-12-02T03:49:00.553Z,92.70
2017-12-02T03:51:27.989Z,92.80
2017-12-02T03:53:56.190Z,92.90
2017-12-02T03:56:23.657Z,92.90
2017-12-02T03:58:51.097Z,92.80
2017-12-02T04:01:18.580Z,92.70
2017-12-02T04:03:46.021Z,92.40
2017-12-02T04:06:13.485Z,92.70
2017-12-02T04:08:40.941Z,92.80
2017-12-02T04:11:08.421Z,93.10
2017-12-02T04:13:35.881Z,93.20
2017-12-02T04:16:03.308Z,93.10
2017-12-02T04:18:30.776Z,93.10
2017-12-02T04:20:58.253Z,93.20
2017-12-02T04:23:25.715Z,93.10
2017-12-02T04:25:53.922Z,93.40
2017-12-02T04:28:22.142Z,93.40
2017-12-02T04:30:49.606Z,93.30
2017-12-02T04:33:17.061Z,93.50
2017-12-02T04:35:44.518Z,93.50
2017-12-02T04:38:12.005Z,93.30
2017-12-02T04:40:39.440Z,93.30
2017-12-02T04:43:06.913Z,93.50
2017-12-02T04:45:34.390Z,93.30
2017-12-02T04:48:02.617Z,93.40
2017-12-02T04:50:30.078Z,93.40
2017-12-02T04:52:57.536Z,93.20
2017-12-02T04:55:24.999Z,93.20
2017-12-02T04:57:52.455Z,93.20
2017-12-02T05:00:19.930Z,93.10
2017-12-02T05:02:47.376Z,93.10
2017-12-02T05:05:14.826Z,93.40
2017-12-02T05:07:42.343Z,93.50
2017-12-02T05:10:10.614Z,93.40
2017-12-02T05:12:38.066Z,93.40
2017-12-02T05:15:05.525Z,93.60
2017-12-02T05:17:32.973Z,93.50
2017-12-02T05:20:00.409Z,93.70
2017-12-02T05:22:27.877Z,93.60
2017-12-02T05:24:55.361Z,93.30
2017-12-02T05:27:22.808Z,93.20
2017-12-02T05:29:50.930Z,93.80
2017-12-02T05:32:18.369Z,93.20
2017-12-02T05:34:45.817Z,93.70
2017-12-02T05:37:14.045Z,93.70
2017-12-02T05:39:41.521Z,93.70
2017-12-02T05:42:09.002Z,93.60
2017-12-02T05:44:36.524Z,93.50
2017-12-02T05:47:03.953Z,93.80
2017-12-02T05:49:31.408Z,93.50
2017-12-02T05:51:58.846Z,93.40
2017-12-02T05:54:27.029Z,93.30
2017-12-02T05:56:54.482Z,93.30
2017-12-02T05:59:21.921Z,93.10
2017-12-02T06:01:51.040Z,93.00
2017-12-02T06:04:18.507Z,93.00
2017-12-02T06:06:45.948Z,93.00
2017-12-02T06:09:14.142Z,93.20
2017-12-02T06:11:41.582Z,93.20
2017-12-02T06:14:09.039Z,93.20
2017-12-02T06:16:36.485Z,93.50
2017-12-02T06:19:04.748Z,93.40
2017-12-02T06:21:32.216Z,93.40
2017-12-02T06:24:00.555Z,92.90
2017-12-02T06:26:28.197Z,92.80
2017-12-02T06:28:55.658Z,93.00
2017-12-02T06:31:23.132Z,93.40
2017-12-02T06:33:50.993Z,93.90
2017-12-02T06:36:18.447Z,93.60
2017-12-02T06:38:45.903Z,93.10
2017-12-02T06:41:13.342Z,93.10
2017-12-02T06:43:40.806Z,92.60
2017-12-02T06:46:08.262Z,92.70
2017-12-02T06:48:35.721Z,92.90
2017-12-02T06:51:03.179Z,92.70
2017-12-02T06:53:30.659Z,93.00
2017-12-02T06:55:58.841Z,92.80
2017-12-02T06:58:26.281Z,92.80
2017-12-02T07:00:53.726Z,92.80
2017-12-02T07:03:21.183Z,92.70
2017-12-02T07:05:48.641Z,92.60
2017-12-02T07:08:16.080Z,92.70
2017-12-02T07:10:43.536Z,93.10
2017-12-02T07:13:11.013Z,93.00
2017-12-02T07:15:38.501Z,92.60
2017-12-02T07:18:06.452Z,92.80
2017-12-02T07:20:33.894Z,93.00
2017-12-02T07:23:02.216Z,93.30
2017-12-02T07:25:29.648Z,93.30
2017-12-02T07:27:57.086Z,93.20
2017-12-02T07:30:24.673Z,93.10
2017-12-02T07:32:52.126Z,92.90
2017-12-02T07:35:19.562Z,92.90
2017-12-02T07:37:47.028Z,93.10
2017-12-02T07:40:14.587Z,93.10
2017-12-02T07:42:42.018Z,92.80
2017-12-02T07:45:10.249Z,93.10
2017-12-02T07:47:37.758Z,93.10
2017-12-02T07:50:05.218Z,93.20
2017-12-02T07:52:32.673Z,93.20
2017-12-02T07:55:00.150Z,93.20
2017-12-02T07:57:27.643Z,93.00
2017-12-02T07:59:55.102Z,93.00
2017-12-02T08:02:22.584Z,93.10
2017-12-02T08:04:49.996Z,93.10
2017-12-02T08:07:17.483Z,93.00
2017-12-02T08:09:44.936Z,92.90
2017-12-02T08:12:13.109Z,92.80
2017-12-02T08:14:40.562Z,92.80
2017-12-02T08:17:08.012Z,92.80
2017-12-02T08:19:35.468Z,93.00
2017-12-02T08:22:02.928Z,93.10
2017-12-02T08:24:30.385Z,92.60
2017-12-02T08:26:57.840Z,92.40
2017-12-02T08:29:25.304Z,92.50
2017-12-02T08:31:52.765Z,92.30
2017-12-02T08:34:20.218Z,92.40
2017-12-02T08:36:47.693Z,92.10
2017-12-02T08:39:15.168Z,92.10
2017-12-02T08:41:42.605Z,92.10
2017-12-02T08:44:10.024Z,92.00
2017-12-02T08:46:37.494Z,92.10
2017-12-02T08:49:04.956Z,92.60
2017-12-02T08:51:32.417Z,92.80
2017-12-02T08:53:59.853Z,92.60
2017-12-02T08:56:27.330Z,92.90
2017-12-02T08:58:54.810Z,93.20
2017-12-02T09:01:22.248Z,93.20
2017-12-02T09:03:49.669Z,93.40
2017-12-02T09:06:17.166Z,93.20
2017-12-02T09:08:44.629Z,93.10
2017-12-02T09:11:12.089Z,92.50
2017-12-02T09:13:39.552Z,92.10
2017-12-02T09:16:06.997Z,92.10
2017-12-02T09:18:34.412Z,92.10
2017-12-02T09:21:01.854Z,92.10
2017-12-02T09:23:30.041Z,92.10
2017-12-02T09:25:57.481Z,92.50
2017-12-02T09:28:25.674Z,92.60
2017-12-02T09:30:53.145Z,92.60
2017-12-02T09:33:21.321Z,92.60
2017-12-02T09:35:48.756Z,92.60
2017-12-02T09:38:16.949Z,92.90
2017-12-02T09:40:44.388Z,92.90
2017-12-02T09:43:11.852Z,92.80
2017-12-02T09:45:39.332Z,93.10
2017-12-02T09:48:06.773Z,92.80
2017-12-02T09:50:34.225Z,92.20
2017-12-02T09:53:01.698Z,92.30
2017-12-02T09:55:29.141Z,92.00
2017-12-02T09:57:56.605Z,92.40
2017-12-02T10:00:24.037Z,92.20
2017-12-02T10:02:51.841Z,92.30
2017-12-02T10:05:19.281Z,92.30
2017-12-02T10:07:46.748Z,92.10
2017-12-02T10:10:14.190Z,91.90
2017-12-02T10:12:41.687Z,92.30
2017-12-02T10:15:09.126Z,92.30
2017-12-02T10:17:36.591Z,92.40
2017-12-02T10:20:04.037Z,91.90
2017-12-02T10:22:31.491Z,91.30
2017-12-02T10:24:58.928Z,91.80
2017-12-02T10:27:27.314Z,91.30
2017-12-02T10:29:55.522Z,91.90
2017-12-02T10:32:22.981Z,91.90
2017-12-02T10:34:50.429Z,92.00
2017-12-02T10:37:18.090Z,92.20
2017-12-02T10:39:45.546Z,92.10
2017-12-02T10:42:13.007Z,91.90
2017-12-02T10:44:40.440Z,92.00
2017-12-02T10:47:07.868Z,91.70
2017-12-02T10:49:35.297Z,92.30
2017-12-02T10:52:02.755Z,91.80
2017-12-02T10:54:30.185Z,91.70
2017-12-02T10:56:57.688Z,91.60
2017-12-02T10:59:25.862Z,91.20
2017-12-02T11:01:53.311Z,91.20
2017-12-02T11:04:20.767Z,91.30
2017-12-02T11:06:48.221Z,91.10
2017-12-02T11:09:15.685Z,91.20
2017-12-02T11:11:43.148Z,90.80
2017-12-02T11:14:10.618Z,90.00
2017-12-02T11:16:38.077Z,90.20
2017-12-02T11:19:05.521Z,90.10
2017-12-02T11:21:32.981Z,90.40
2017-12-02T11:24:00.428Z,90.70
2017-12-02T11:26:27.898Z,90.40
2017-12-02T11:28:55.354Z,90.10
2017-12-02T11:31:22.786Z,89.90
2017-12-02T11:33:50.266Z,89.00
2017-12-02T11:36:17.744Z,88.70
2017-12-02T11:38:45.191Z,90.00
2017-12-02T11:41:12.677Z,89.80
2017-12-02T11:43:40.936Z,89.10
2017-12-02T11:46:08.394Z,89.10
2017-12-02T11:48:35.835Z,90.00
2017-12-02T11:51:03.288Z,88.60
2017-12-02T11:53:30.711Z,89.50
2017-12-02T11:55:58.163Z,90.00
2017-12-02T11:58:25.598Z,90.10
2017-12-02T12:00:53.801Z,90.20
2017-12-02T12:03:21.229Z,90.20
2017-12-02T12:05:49.467Z,89.90
2017-12-02T12:08:16.885Z,89.90
2017-12-02T12:10:44.344Z,89.10
2017-12-02T12:13:11.793Z,89.20
2017-12-02T12:15:39.248Z,88.90
2017-12-02T12:18:06.722Z,90.30
2017-12-02T12:20:34.176Z,90.00
2017-12-02T12:23:01.622Z,90.00
2017-12-02T12:25:29.074Z,90.20
2017-12-02T12:27:56.553Z,90.30
2017-12-02T12:30:24.022Z,88.70
2017-12-02T12:32:52.221Z,88.50
2017-12-02T12:35:19.656Z,88.20
2017-12-02T12:37:47.065Z,89.10
2017-12-02T12:40:15.286Z,89.50
2017-12-02T12:42:42.718Z,89.40
2017-12-02T12:45:10.174Z,88.30
2017-12-02T12:47:37.647Z,88.50
2017-12-02T12:50:05.101Z,89.20
2017-12-02T12:52:32.566Z,90.20
2017-12-02T12:55:00.021Z,89.60
2017-12-02T12:57:27.480Z,89.60
2017-12-02T12:59:54.937Z,90.10
2017-12-02T13:02:22.397Z,89.80
2017-12-02T13:04:49.831Z,89.70
2017-12-02T13:07:17.287Z,88.90
2017-12-02T13:09:44.749Z,89.20
2017-12-02T13:12:12.210Z,89.00
2017-12-02T13:14:39.666Z,89.40
2017-12-02T13:17:07.125Z,89.10
2017-12-02T13:19:34.608Z,89.50
2017-12-02T13:22:02.069Z,89.40
2017-12-02T13:24:29.521Z,90.20
2017-12-02T13:26:56.976Z,89.30
2017-12-02T13:29:24.449Z,89.70
2017-12-02T13:31:52.330Z,89.60
2017-12-02T13:34:19.785Z,90.00
2017-12-02T13:36:47.253Z,89.40
2017-12-02T13:39:14.696Z,87.30
2017-12-02T13:41:42.162Z,87.60
2017-12-02T13:44:09.599Z,86.40
2017-12-02T13:46:37.042Z,88.30
2017-12-02T13:49:04.543Z,89.10
2017-12-02T13:51:31.993Z,89.40
2017-12-02T13:53:59.457Z,89.30
2017-12-02T13:56:26.923Z,89.10
2017-12-02T13:58:54.362Z,89.40
2017-12-02T14:01:21.826Z,89.70
2017-12-02T14:03:49.289Z,89.90
2017-12-02T14:06:16.719Z,89.80
